Nearby METAR Reports

 

EGAA - Belfast International Airport
Distance from station: W 19.6km
Updated: 20/10/2017 05:20
Overcast
Overcast
 Wind from WNW
Wind: WNW 17 km/h
Temperature: 10°C
Wind Chill: 8°C
Dew Point: 9°C
Humidity: 94%
Barometer: 998 hPa
Clouds: Overcast
Visibility: 10 km
Cloud details: Mostly cloudy 244 m
Mostly cloudy 427 m
Overcast 579 m
2017/10/20 04:20 EGAA 200420Z 29009KT 9999 BKN008 BKN014 OVC019 10/09 Q0998
EGAC - George Best Belfast City Airport
Distance from station: SE 6.4km
Updated: 19/10/2017 21:50
NOT Current
Rain, Mostly cloudy
Rain, Mostly cloudy
 Wind from calm
Wind: Calm
Temperature: 12°C
Dew Point: 12°C
Humidity: 100%
Barometer: 994 hPa
Summary: Rain
Clouds: Mostly cloudy
Visibility: 10 km
Cloud details: Few Clouds 274 m
Partly cloudy 549 m
Mostly cloudy 945 m
2017/10/19 20:50 EGAC 192050Z 00000KT 9999 RA FEW009 SCT018 BKN031 12/12 Q0994